Time;durP1;ratioP1;P1;durP2;ratioP2;P2;SDS_P1;SDS_P2;PMS_P1;PMS_P2;Temp;Humidity;BMP_temperature;BMP_pressure;BME280_temperature;BME280_humidity;BME280_pressure;Samples;Min_cycle;Max_cycle;Signal;HPM_P1;HPM_P2
2023/12/11 02:01:10;;;;;;;29.52;12.07;;;-8.30;64.40;;;;;;5038195;28;20455;-82
2023/12/11 02:04:18;;;;;;;;;;;;;;;;;;;;;
2023/12/11 02:24:13;;;;;;;27.75;10.88;;;-8.10;65.20;;;;;;5035283;28;20053;-81
2023/12/11 03:33:50;;;;;;;28.83;11.52;;;-7.70;65.70;;;;;;5058492;27;20477;-82
2023/12/11 04:52:20;;;;;;;;;;;;;;;;;;;;;
2023/12/11 05:32:38;;;;;;;29.00;12.10;;;-7.20;66.00;;;;;;5884713;24;20053;-82
2023/12/11 06:36:56;;;;;;;28.90;9.35;;;-7.20;66.70;;;;;;6197204;23;20031;-82
2023/12/11 06:40:24;;;;;;;;;;;;;;;;;;;;;
2023/12/11 06:57:00;;;;;;;27.65;11.50;;;-7.10;67.00;;;;;;6146593;23;20474;-83
2023/12/11 07:29:28;;;;;;;26.02;9.32;;;-7.00;67.00;;;;;;6121406;23;20474;-83
2023/12/11 07:32:18;;;;;;;;;;;;;;;;;;;;;
2023/12/11 07:36:07;;;;;;;25.25;11.35;;;-6.90;66.80;;;;;;6131850;23;20033;-84
2023/12/11 08:12:06;;;;;;;21.95;9.50;;;-6.70;66.80;;;;;;5095319;28;20901;-84
2023/12/11 08:14:33;;;;;;;25.83;10.82;;;-6.80;66.50;;;;;;5125289;28;20051;-84
2023/12/11 08:17:02;;;;;;;24.02;10.93;;;-6.80;66.70;;;;;;5116699;28;20048;-87
2023/12/11 08:19:29;;;;;;;26.45;11.55;;;-6.80;66.60;;;;;;5115263;28;20055;-89
2023/12/11 08:21:57;;;;;;;27.23;12.23;;;-6.80;66.70;;;;;;5044418;28;20080;-84
2023/12/11 08:24:25;;;;;;;27.75;10.70;;;-6.70;66.70;;;;;;5071567;28;20151;-88
2023/12/11 08:26:55;;;;;;;25.00;10.57;;;-6.70;66.40;;;;;;5084146;28;20060;-88
2023/12/11 08:29:30;;;;;;;34.38;12.35;;;-6.60;66.70;;;;;;5070806;28;20431;-85
2023/12/11 08:32:03;;;;;;;25.40;8.85;;;-6.60;66.80;;;;;;5056334;28;20110;-86
2023/12/11 08:34:31;;;;;;;23.83;11.05;;;-6.60;66.60;;;;;;5048184;28;20056;-86
2023/12/11 08:37:00;;;;;;;28.58;13.52;;;-6.70;66.70;;;;;;5076100;28;20057;-86
2023/12/11 08:40:27;;;;;;;;;;;;;;;;;;;;;
2023/12/11 08:43:18;;;;;;;23.80;9.13;;;-6.50;66.80;;;;;;5047004;28;20059;-86
2023/12/11 08:45:47;;;;;;;28.73;12.35;;;-6.50;66.80;;;;;;5086451;28;20534;-86
2023/12/11 08:48:15;;;;;;;32.58;13.15;;;-6.60;66.80;;;;;;5091884;28;20299;-88
2023/12/11 08:50:43;;;;;;;39.88;13.73;;;-6.60;67.40;;;;;;5085663;28;20090;-85
2023/12/11 08:53:11;;;;;;;30.35;12.63;;;-6.70;67.70;;;;;;5107885;28;20051;-88
2023/12/11 08:55:41;;;;;;;24.85;11.13;;;-6.70;68.10;;;;;;5077194;28;20049;-87
2023/12/11 08:58:18;;;;;;;15.93;6.78;;;-6.70;68.20;;;;;;5103539;28;20113;-85
2023/12/11 09:00:47;;;;;;;37.08;14.10;;;-6.70;69.00;;;;;;5108862;28;20511;-89
2023/12/11 09:03:15;;;;;;;33.67;13.02;;;-6.60;68.60;;;;;;5094953;28;20147;-90
2023/12/11 09:05:43;;;;;;;32.53;13.38;;;-6.50;68.70;;;;;;5104585;28;20148;-88
2023/12/11 09:08:11;;;;;;;25.63;11.85;;;-6.40;68.40;;;;;;5086032;28;20056;-88
2023/12/11 09:10:40;;;;;;;28.35;12.20;;;-6.30;68.20;;;;;;5061637;28;20059;-86
2023/12/11 09:13:08;;;;;;;30.02;12.82;;;-6.30;68.00;;;;;;5096284;28;20044;-90
2023/12/11 09:15:36;;;;;;;30.48;12.80;;;-6.30;67.40;;;;;;5086402;28;20158;-89
2023/12/11 09:18:06;;;;;;;30.55;12.88;;;-6.40;67.50;;;;;;5074056;28;20150;-89
2023/12/11 09:20:34;;;;;;;34.75;13.55;;;-6.20;67.40;;;;;;5074287;28;20142;-88
2023/12/11 09:23:02;;;;;;;27.52;12.07;;;-6.10;67.00;;;;;;5056497;28;20059;-89
2023/12/11 09:25:30;;;;;;;32.35;12.32;;;-6.10;66.80;;;;;;5087552;28;20446;-88
2023/12/11 09:27:58;;;;;;;28.77;11.40;;;-6.00;66.50;;;;;;5074637;28;20151;-90
2023/12/11 09:30:26;;;;;;;27.58;13.52;;;-6.00;66.10;;;;;;5073842;28;20242;-91
2023/12/11 09:32:55;;;;;;;28.98;13.27;;;-5.90;66.10;;;;;;5089907;28;20516;-90
2023/12/11 09:35:25;;;;;;;34.45;11.30;;;-5.90;65.80;;;;;;5090955;28;20511;-91
2023/12/11 09:37:53;;;;;;;28.75;11.70;;;-5.90;65.60;;;;;;5078926;28;20047;-89
2023/12/11 09:40:21;;;;;;;25.60;12.00;;;-5.80;65.50;;;;;;5075046;28;20122;-89
2023/12/11 09:42:52;;;;;;;26.42;11.75;;;-5.80;65.50;;;;;;5055503;28;20067;-89
2023/12/11 09:45:22;;;;;;;32.22;14.35;;;-6.00;65.00;;;;;;5092647;28;20052;-91
2023/12/11 09:47:57;;;;;;;30.08;13.52;;;-6.00;65.50;;;;;;5088014;28;20060;-84
2023/12/11 09:50:26;;;;;;;31.50;11.88;;;-5.90;65.50;;;;;;5094113;28;20067;-90
2023/12/11 09:52:56;;;;;;;28.20;11.95;;;-6.00;65.20;;;;;;5067217;28;20154;-89
2023/12/11 09:55:28;;;;;;;26.42;11.40;;;-5.90;65.30;;;;;;5081527;28;20435;-90
2023/12/11 09:58:08;;;;;;;36.28;13.02;;;-5.90;65.00;;;;;;5091524;28;20055;-88
2023/12/11 10:00:37;;;;;;;27.17;11.80;;;-6.00;64.70;;;;;;5084442;28;20576;-90
2023/12/11 10:03:07;;;;;;;30.30;13.48;;;-6.00;65.00;;;;;;5068923;28;20057;-88
2023/12/11 10:05:38;;;;;;;30.23;12.90;;;-5.90;65.30;;;;;;5091476;28;20464;-89
2023/12/11 10:08:06;;;;;;;28.05;11.07;;;-5.90;65.00;;;;;;5089921;28;20052;-90
2023/12/11 10:10:37;;;;;;;30.52;13.80;;;-6.00;64.90;;;;;;5080454;28;20436;-89
2023/12/11 10:13:05;;;;;;;22.17;12.32;;;-6.00;65.30;;;;;;5070462;28;20110;-88
2023/12/11 10:15:35;;;;;;;25.23;12.10;;;-5.90;65.00;;;;;;5054017;28;20052;-89
2023/12/11 10:18:06;;;;;;;30.10;12.90;;;-5.90;65.00;;;;;;5071300;28;20052;-87
2023/12/11 10:20:38;;;;;;;30.67;13.43;;;-6.00;64.60;;;;;;5085867;28;20052;-90
2023/12/11 10:23:14;;;;;;;28.00;12.48;;;-5.90;65.00;;;;;;5082585;28;20432;-89
2023/12/11 10:25:43;;;;;;;29.88;12.70;;;-5.80;65.10;;;;;;5071895;28;20063;-89
2023/12/11 10:28:12;;;;;;;29.65;13.98;;;-5.90;64.80;;;;;;5089615;28;20140;-92
2023/12/11 10:30:54;;;;;;;26.35;12.40;;;-5.90;64.70;;;;;;5076941;28;20048;-90
2023/12/11 10:33:24;;;;;;;27.60;12.52;;;-5.90;64.80;;;;;;5090600;28;20051;-89
2023/12/11 10:35:55;;;;;;;29.30;12.00;;;-5.80;65.10;;;;;;5091700;28;20058;-90
2023/12/11 10:38:24;;;;;;;26.50;12.07;;;-5.80;65.10;;;;;;5089144;28;20060;-89
2023/12/11 10:40:53;;;;;;;30.38;12.27;;;-5.90;65.30;;;;;;5111657;28;20052;-92
2023/12/11 10:43:21;;;;;;;28.35;13.30;;;-5.80;65.40;;;;;;5080671;28;20055;-91
2023/12/11 10:45:49;;;;;;;33.65;13.60;;;-5.80;65.80;;;;;;5105670;28;20463;-89
2023/12/11 10:48:19;;;;;;;35.88;13.27;;;-5.80;65.70;;;;;;5054463;28;20080;-91
2023/12/11 10:50:47;;;;;;;40.00;13.75;;;-5.80;65.80;;;;;;5079304;28;20048;-89
2023/12/11 10:53:17;;;;;;;31.65;12.90;;;-5.90;65.90;;;;;;5090793;28;20135;-93
2023/12/11 10:55:47;;;;;;;30.65;12.98;;;-5.80;66.00;;;;;;5088897;28;20508;-91
2023/12/11 10:58:15;;;;;;;35.22;14.75;;;-5.70;66.20;;;;;;5091190;28;20101;-89
2023/12/11 11:00:46;;;;;;;23.65;11.50;;;-5.70;65.90;;;;;;5090693;28;20048;-91
2023/12/11 11:03:14;;;;;;;28.77;12.20;;;-5.80;65.50;;;;;;5088486;28;20314;-90
2023/12/11 11:05:46;;;;;;;29.95;12.57;;;-5.70;65.80;;;;;;5088097;28;20495;-89
2023/12/11 11:08:24;;;;;;;30.17;13.93;;;-5.70;66.00;;;;;;5089368;28;20139;-93
2023/12/11 11:10:59;;;;;;;33.72;13.23;;;-5.70;65.80;;;;;;5055145;28;20060;-87
2023/12/11 11:13:41;;;;;;;30.77;13.63;;;-5.80;66.10;;;;;;5087257;28;20052;-89
2023/12/11 11:16:09;;;;;;;22.63;11.93;;;-5.80;66.30;;;;;;5062910;28;20052;-88
2023/12/11 11:19:06;;;;;;;31.60;14.55;;;-5.70;66.40;;;;;;5087909;28;20052;-88
2023/12/11 11:21:36;;;;;;;33.30;13.00;;;-5.70;66.50;;;;;;5082625;28;20078;-90
2023/12/11 11:24:28;;;;;;;37.53;14.40;;;-5.70;66.40;;;;;;5084489;28;20044;-92
2023/12/11 11:26:56;;;;;;;28.77;12.70;;;-5.70;66.50;;;;;;5083509;28;20075;-88
2023/12/11 11:29:40;;;;;;;26.15;11.70;;;-5.70;66.20;;;;;;5069769;28;20130;-90
2023/12/11 11:32:08;;;;;;;26.67;12.05;;;-5.70;66.40;;;;;;5085834;28;20308;-90
2023/12/11 11:34:48;;;;;;;33.78;12.65;;;-5.70;66.50;;;;;;5091527;28;20056;-91
2023/12/11 11:37:59;;;;;;;26.20;12.63;;;-5.70;66.60;;;;;;5068378;28;20420;-91
2023/12/11 11:40:39;;;;;;;33.72;13.15;;;-5.70;66.60;;;;;;5081000;28;20052;-90
2023/12/11 11:43:16;;;;;;;33.28;13.82;;;-5.70;66.70;;;;;;5071424;28;20861;-89
2023/12/11 11:45:55;;;;;;;27.80;13.55;;;-5.70;66.50;;;;;;5090271;28;20520;-86
2023/12/11 11:48:23;;;;;;;28.13;11.88;;;-5.60;66.40;;;;;;5087307;28;20052;-85
2023/12/11 11:50:53;;;;;;;26.23;10.50;;;-5.60;66.50;;;;;;5077926;28;20574;-85
2023/12/11 11:53:22;;;;;;;28.92;11.10;;;-5.60;66.40;;;;;;5051079;28;20174;-85
2023/12/11 11:55:52;;;;;;;31.95;13.95;;;-5.60;66.20;;;;;;5049802;28;20049;-85
2023/12/11 11:58:19;;;;;;;31.08;13.68;;;-5.60;66.30;;;;;;5051877;28;20470;-85
2023/12/11 12:00:48;;;;;;;29.83;13.55;;;-5.70;66.40;;;;;;5086342;28;20148;-85
2023/12/11 12:03:16;;;;;;;30.73;12.57;;;-5.60;66.40;;;;;;5051008;28;20063;-83
2023/12/11 12:05:56;;;;;;;31.40;12.02;;;-5.60;66.30;;;;;;5068826;28;20087;-82
2023/12/11 12:08:24;;;;;;;32.00;12.88;;;-5.60;66.20;;;;;;5072744;28;20048;-83
2023/12/11 12:10:57;;;;;;;29.42;12.60;;;-5.60;66.20;;;;;;5051187;28;20049;-83
2023/12/11 12:13:27;;;;;;;27.67;12.60;;;-5.70;66.20;;;;;;5068279;28;20062;-82
2023/12/11 12:15:57;;;;;;;29.08;13.27;;;-5.60;66.50;;;;;;5063588;28;20405;-82
2023/12/11 12:18:25;;;;;;;32.72;13.02;;;-5.60;66.70;;;;;;5081814;28;20076;-82
2023/12/11 12:21:03;;;;;;;38.55;12.88;;;-5.60;66.40;;;;;;5065655;28;20508;-83
2023/12/11 12:23:31;;;;;;;32.85;12.90;;;-5.60;66.60;;;;;;5069500;28;20539;-83
2023/12/11 12:26:03;;;;;;;31.90;12.70;;;-5.60;66.80;;;;;;5077418;28;20075;-83
2023/12/11 12:28:36;;;;;;;30.90;12.38;;;-5.60;66.50;;;;;;5068084;28;20057;-83
2023/12/11 12:31:04;;;;;;;37.75;13.82;;;-5.60;66.70;;;;;;5081290;28;20446;-84
2023/12/11 12:33:32;;;;;;;30.65;12.20;;;-5.60;66.70;;;;;;5087925;28;20052;-82
2023/12/11 12:36:00;;;;;;;30.42;13.15;;;-5.70;66.70;;;;;;5061376;28;20102;-82
2023/12/11 12:38:28;;;;;;;28.70;12.80;;;-5.60;67.00;;;;;;5083329;28;20063;-84
2023/12/11 12:40:56;;;;;;;31.73;14.27;;;-5.60;66.90;;;;;;5067450;28;20060;-83
2023/12/11 12:43:32;;;;;;;31.52;13.18;;;-5.70;67.00;;;;;;5086357;28;20531;-83
2023/12/11 12:46:01;;;;;;;26.33;11.73;;;-5.60;67.20;;;;;;5084821;28;20389;-82
2023/12/11 12:48:30;;;;;;;32.63;13.00;;;-5.60;67.10;;;;;;5079039;28;20488;-82
2023/12/11 12:51:07;;;;;;;31.40;12.02;;;-5.60;67.30;;;;;;5071196;28;20740;-84
2023/12/11 12:53:35;;;;;;;28.92;12.23;;;-5.70;67.10;;;;;;5065212;28;20056;-81
2023/12/11 12:56:16;;;;;;;28.00;12.30;;;-5.70;67.20;;;;;;5064575;28;20485;-81
2023/12/11 12:58:51;;;;;;;32.00;12.63;;;-5.60;67.30;;;;;;5079457;28;20048;-83
2023/12/11 13:01:21;;;;;;;31.45;12.02;;;-5.70;67.30;;;;;;5088855;28;20052;-81
2023/12/11 13:03:51;;;;;;;25.85;11.73;;;-5.60;67.50;;;;;;5074237;28;20053;-83
2023/12/11 13:06:26;;;;;;;26.67;10.60;;;-5.70;67.20;;;;;;5067223;28;20162;-82
2023/12/11 13:08:54;;;;;;;35.60;12.13;;;-5.70;67.40;;;;;;5068211;28;20052;-84
2023/12/11 13:11:21;;;;;;;27.05;11.48;;;-5.70;67.50;;;;;;5067080;28;20504;-83
2023/12/11 13:14:01;;;;;;;26.65;11.95;;;-5.70;67.70;;;;;;5087882;28;20076;-83
2023/12/11 13:16:28;;;;;;;26.98;12.00;;;-5.70;67.80;;;;;;5072514;28;20090;-82
2023/12/11 13:18:56;;;;;;;33.80;14.35;;;-5.70;67.80;;;;;;5070321;28;20445;-82
2023/12/11 13:21:24;;;;;;;29.67;12.15;;;-5.70;67.70;;;;;;5095876;28;20100;-83
2023/12/11 13:23:51;;;;;;;28.40;13.23;;;-5.70;67.70;;;;;;5089446;28;20574;-83
2023/12/11 13:26:19;;;;;;;34.60;12.90;;;-5.70;67.70;;;;;;5105845;28;20055;-83
2023/12/11 13:28:53;;;;;;;26.65;12.30;;;-5.70;67.70;;;;;;5089217;28;20052;-84
2023/12/11 13:31:24;;;;;;;28.27;12.32;;;-5.60;67.70;;;;;;5071487;28;20059;-83
2023/12/11 13:33:52;;;;;;;25.30;10.80;;;-5.60;67.70;;;;;;5088075;28;20048;-82
2023/12/11 13:36:20;;;;;;;28.63;11.05;;;-5.50;67.60;;;;;;5090672;28;20504;-82
2023/12/11 13:38:57;;;;;;;25.70;11.18;;;-5.60;67.50;;;;;;5092371;28;20053;-83
2023/12/11 13:41:57;;;;;;;23.52;11.35;;;-5.70;67.40;;;;;;5075673;28;20064;-82
2023/12/11 13:44:26;;;;;;;29.92;11.88;;;-5.70;68.10;;;;;;5074187;28;20059;-84
2023/12/11 13:46:56;;;;;;;24.48;11.10;;;-5.70;68.00;;;;;;5093733;28;20124;-83
2023/12/11 13:49:23;;;;;;;23.63;10.82;;;-5.70;67.90;;;;;;5078806;28;20609;-84
2023/12/11 13:51:51;;;;;;;28.52;12.30;;;-5.60;67.90;;;;;;5081014;28;20067;-84
2023/12/11 13:54:28;;;;;;;25.75;11.55;;;-5.70;67.80;;;;;;5058627;28;20044;-84
2023/12/11 13:56:56;;;;;;;30.58;11.80;;;-5.60;67.70;;;;;;5072733;28;20117;-85
2023/12/11 13:59:24;;;;;;;27.17;12.15;;;-5.60;67.80;;;;;;5070566;28;20142;-84
2023/12/11 14:01:52;;;;;;;27.45;11.52;;;-5.60;67.80;;;;;;5050132;28;20529;-84
2023/12/11 14:04:20;;;;;;;26.75;11.43;;;-5.50;67.90;;;;;;5107353;28;20040;-85
2023/12/11 14:06:48;;;;;;;33.80;12.40;;;-5.50;67.80;;;;;;5095544;28;20522;-85
2023/12/11 14:09:34;;;;;;;23.70;10.57;;;-5.60;67.60;;;;;;5090752;28;20082;-84
2023/12/11 14:20:55;;;;;;;;;;;;;;;;;;;;;
